createdAt,value
2022-08-20T00:01:17.241Z,8.20
2022-08-20T00:03:51.686Z,7.85
2022-08-20T00:06:23.838Z,10.02
2022-08-20T00:08:51.816Z,10.98
2022-08-20T00:11:22.943Z,9.13
2022-08-20T00:13:55.604Z,9.85
2022-08-20T00:16:25.728Z,12.95
2022-08-20T00:18:53.504Z,13.52
2022-08-20T00:21:23.303Z,12.80
2022-08-20T00:23:53.859Z,8.73
2022-08-20T00:26:23.286Z,10.93
2022-08-20T00:28:51.975Z,10.30
2022-08-20T00:31:21.229Z,11.55
2022-08-20T00:33:49.979Z,12.82
2022-08-20T00:36:18.016Z,12.40
2022-08-20T00:38:46.900Z,12.15
2022-08-20T00:41:19.526Z,13.68
2022-08-20T00:43:51.955Z,14.73
2022-08-20T00:46:30.925Z,11.15
2022-08-20T00:49:02.252Z,14.10
2022-08-20T00:51:33.569Z,13.68
2022-08-20T00:54:33.905Z,10.20
2022-08-20T00:57:08.515Z,17.83
2022-08-20T00:59:39.953Z,13.93
2022-08-20T01:02:12.308Z,14.30
2022-08-20T01:04:40.642Z,7.78
2022-08-20T01:09:58.174Z,9.60
2022-08-20T01:12:27.104Z,15.02
2022-08-20T01:14:56.355Z,10.30
2022-08-20T01:17:26.602Z,9.88
2022-08-20T01:20:07.705Z,9.82
2022-08-20T01:23:09.810Z,18.70
2022-08-20T01:25:45.423Z,10.60
2022-08-20T01:28:16.206Z,10.48
2022-08-20T01:30:45.175Z,13.63
2022-08-20T01:33:12.966Z,8.25
2022-08-20T01:35:44.019Z,15.75
2022-08-20T01:38:12.295Z,9.77
2022-08-20T01:41:15.720Z,18.17
2022-08-20T01:43:46.096Z,9.00
2022-08-20T01:46:17.475Z,10.98
2022-08-20T01:48:47.801Z,9.48
2022-08-20T01:51:19.225Z,11.50
2022-08-20T01:53:51.400Z,12.02
2022-08-20T01:56:22.912Z,11.68
2022-08-20T01:58:56.023Z,13.10
2022-08-20T02:01:33.925Z,13.10
2022-08-20T02:04:15.218Z,11.10
2022-08-20T02:06:56.446Z,11.68
2022-08-20T02:09:27.542Z,14.73
2022-08-20T02:11:57.422Z,12.73
2022-08-20T02:14:26.520Z,14.88
2022-08-20T02:16:55.467Z,14.95
2022-08-20T02:19:48.174Z,10.32
2022-08-20T02:22:50.137Z,15.13
2022-08-20T02:25:19.725Z,11.60
2022-08-20T02:27:48.798Z,13.38
2022-08-20T02:33:01.567Z,13.20
2022-08-20T02:35:34.393Z,19.98
2022-08-20T02:38:02.754Z,10.90
2022-08-20T02:40:31.444Z,7.32
2022-08-20T02:43:00.733Z,15.07
2022-08-20T02:45:31.604Z,14.15
2022-08-20T02:47:59.508Z,11.38
2022-08-20T02:50:27.576Z,15.13
2022-08-20T02:52:55.434Z,12.45
2022-08-20T02:55:27.689Z,14.25
2022-08-20T02:57:58.760Z,15.45
2022-08-20T03:00:28.729Z,10.75
2022-08-20T03:02:56.457Z,16.02
2022-08-20T03:05:23.999Z,10.85
2022-08-20T03:07:59.811Z,16.50
2022-08-20T03:10:32.340Z,12.57
2022-08-20T03:13:02.240Z,13.63
2022-08-20T03:15:31.448Z,16.33
2022-08-20T03:17:59.634Z,14.23
2022-08-20T03:20:27.940Z,12.02
2022-08-20T03:22:55.986Z,10.30
2022-08-20T03:25:24.761Z,18.30
2022-08-20T03:27:55.225Z,14.07
2022-08-20T03:30:24.625Z,14.52
2022-08-20T03:32:52.851Z,18.73
2022-08-20T03:37:49.062Z,16.23
2022-08-20T03:40:22.947Z,17.63
2022-08-20T03:42:52.609Z,15.93
2022-08-20T03:45:23.414Z,13.45
2022-08-20T03:47:55.694Z,18.60
2022-08-20T03:50:28.263Z,10.35
2022-08-20T03:52:57.666Z,15.20
2022-08-20T03:55:27.263Z,13.90
2022-08-20T03:57:58.582Z,12.60
2022-08-20T04:00:32.388Z,17.88
2022-08-20T04:03:00.846Z,12.98
2022-08-20T04:05:31.053Z,18.40
2022-08-20T04:08:03.431Z,15.35
2022-08-20T04:10:32.143Z,15.07
2022-08-20T04:13:00.198Z,17.10
2022-08-20T04:15:29.214Z,18.13
2022-08-20T04:17:59.587Z,14.35
2022-08-20T04:20:27.533Z,16.05
2022-08-20T04:22:59.333Z,15.63
2022-08-20T04:25:31.915Z,18.08
2022-08-20T04:28:06.862Z,9.57
2022-08-20T04:30:35.050Z,14.13
2022-08-20T04:33:02.761Z,11.75
2022-08-20T04:35:31.410Z,13.93
2022-08-20T04:38:04.979Z,14.45
2022-08-20T04:40:52.938Z,14.38
2022-08-20T04:45:48.824Z,16.83
2022-08-20T04:48:16.380Z,14.80
2022-08-20T04:50:46.671Z,14.75
2022-08-20T04:53:20.645Z,14.85
2022-08-20T04:55:52.774Z,12.75
2022-08-20T04:58:30.719Z,13.80
2022-08-20T05:01:02.184Z,14.35
2022-08-20T05:03:30.096Z,16.98
2022-08-20T05:05:58.943Z,11.05
2022-08-20T05:08:26.659Z,12.02
2022-08-20T05:10:56.111Z,8.63
2022-08-20T05:13:43.018Z,9.95
2022-08-20T05:16:10.607Z,15.23
2022-08-20T05:18:38.161Z,16.95
2022-08-20T05:21:06.102Z,16.15
2022-08-20T05:23:37.848Z,12.02
2022-08-20T05:26:07.526Z,15.75
2022-08-20T05:28:52.705Z,12.77
2022-08-20T05:31:32.692Z,16.73
2022-08-20T05:34:11.331Z,11.07
2022-08-20T05:36:42.087Z,11.48
2022-08-20T05:39:10.683Z,14.45
2022-08-20T05:41:39.406Z,13.82
2022-08-20T05:44:10.805Z,13.18
2022-08-20T05:46:42.665Z,11.80
2022-08-20T05:49:19.870Z,13.27
2022-08-20T05:51:48.943Z,15.32
2022-08-20T05:54:16.479Z,13.30
2022-08-20T05:56:44.108Z,15.32
2022-08-20T05:59:13.941Z,13.85
2022-08-20T06:01:42.814Z,16.73
2022-08-20T06:04:27.888Z,18.48
2022-08-20T06:07:07.634Z,18.60
2022-08-20T06:09:36.283Z,19.55
2022-08-20T06:12:06.547Z,10.23
2022-08-20T06:14:34.572Z,18.30
2022-08-20T06:17:04.820Z,13.77
2022-08-20T06:19:33.941Z,16.90
2022-08-20T06:22:02.607Z,16.52
2022-08-20T06:24:45.568Z,16.33
2022-08-20T06:27:15.979Z,14.15
2022-08-20T06:29:43.780Z,23.50
2022-08-20T06:32:11.469Z,15.02
2022-08-20T06:34:50.480Z,21.90
2022-08-20T06:37:31.706Z,17.92
2022-08-20T06:40:16.741Z,20.65
2022-08-20T06:42:48.577Z,14.10
2022-08-20T06:45:20.941Z,14.63
2022-08-20T06:47:48.519Z,19.75
2022-08-20T06:50:20.402Z,22.23
2022-08-20T06:52:52.798Z,20.35
2022-08-20T06:55:24.276Z,16.00
2022-08-20T06:58:01.358Z,16.98
2022-08-20T07:00:36.226Z,14.02
2022-08-20T07:03:04.920Z,17.13
2022-08-20T07:05:42.134Z,19.95
2022-08-20T07:08:16.452Z,18.17
2022-08-20T07:10:44.410Z,14.55
2022-08-20T07:13:14.792Z,16.15
2022-08-20T07:15:44.551Z,19.75
2022-08-20T07:18:14.015Z,17.45
2022-08-20T07:20:42.403Z,18.33
2022-08-20T07:23:11.995Z,16.45
2022-08-20T07:25:41.850Z,21.52
2022-08-20T07:28:15.108Z,22.83
2022-08-20T07:31:12.195Z,14.27
2022-08-20T07:33:41.973Z,14.70
2022-08-20T07:38:38.474Z,12.75
2022-08-20T07:41:09.838Z,15.65
2022-08-20T07:43:39.457Z,17.20
2022-08-20T07:46:09.013Z,16.25
2022-08-20T07:48:41.880Z,14.50
2022-08-20T07:51:11.053Z,18.27
2022-08-20T07:53:40.863Z,17.77
2022-08-20T07:56:13.148Z,15.15
2022-08-20T07:58:47.451Z,14.98
2022-08-20T08:01:15.377Z,15.63
2022-08-20T08:03:49.618Z,16.15
2022-08-20T08:06:29.597Z,21.50
2022-08-20T08:09:07.810Z,13.65
2022-08-20T08:11:38.411Z,13.20
2022-08-20T08:14:09.821Z,13.82
2022-08-20T08:16:37.896Z,12.88
2022-08-20T08:21:34.237Z,13.32
2022-08-20T08:24:02.629Z,16.40
2022-08-20T08:26:30.363Z,14.57
2022-08-20T08:29:00.924Z,16.73
2022-08-20T08:31:28.812Z,12.75
2022-08-20T08:33:56.386Z,14.90
2022-08-20T08:36:26.264Z,11.85
2022-08-20T08:38:54.647Z,11.55
2022-08-20T08:44:08.093Z,10.20
2022-08-20T08:46:42.482Z,10.52
2022-08-20T08:49:18.338Z,15.23
2022-08-20T08:51:52.735Z,7.10
2022-08-20T08:54:24.792Z,9.13
2022-08-20T08:56:53.275Z,9.48
2022-08-20T08:59:23.125Z,9.98
2022-08-20T09:01:57.265Z,8.70
2022-08-20T09:04:32.973Z,9.57
2022-08-20T09:07:03.099Z,7.55
2022-08-20T09:09:37.822Z,10.35
2022-08-20T09:12:12.653Z,9.57
2022-08-20T09:14:41.004Z,7.38
2022-08-20T09:17:08.650Z,7.88
2022-08-20T09:19:36.218Z,8.60
2022-08-20T09:22:12.621Z,9.02
2022-08-20T09:24:40.775Z,8.82
2022-08-20T09:27:12.292Z,10.25
2022-08-20T09:29:42.184Z,8.75
2022-08-20T09:32:13.951Z,12.35
2022-08-20T09:34:47.472Z,8.32
2022-08-20T09:37:15.870Z,6.20
2022-08-20T09:39:43.734Z,7.00
2022-08-20T09:42:17.675Z,12.00
2022-08-20T09:44:45.700Z,9.52
2022-08-20T09:47:13.456Z,7.40
2022-08-20T09:49:41.131Z,11.77
2022-08-20T09:52:11.280Z,9.40
2022-08-20T09:54:44.542Z,7.10
2022-08-20T09:57:16.809Z,9.05
2022-08-20T09:59:48.171Z,8.57
2022-08-20T10:02:15.713Z,9.40
2022-08-20T10:04:43.303Z,6.93
2022-08-20T10:07:11.058Z,6.47
2022-08-20T10:09:38.752Z,7.07
2022-08-20T10:12:10.163Z,10.77
2022-08-20T10:14:37.723Z,10.45
2022-08-20T10:17:05.374Z,8.00
2022-08-20T10:19:33.364Z,7.43
2022-08-20T10:22:01.610Z,7.20
2022-08-20T10:24:30.248Z,6.35
2022-08-20T10:26:59.794Z,9.07
2022-08-20T10:29:28.689Z,7.03
2022-08-20T10:31:59.424Z,8.05
2022-08-20T10:34:27.115Z,10.90
2022-08-20T10:36:54.804Z,10.65
2022-08-20T10:39:31.574Z,8.88
2022-08-20T10:42:01.936Z,10.68
2022-08-20T10:44:29.631Z,12.82
2022-08-20T10:46:57.333Z,7.50
2022-08-20T10:49:24.910Z,7.10
2022-08-20T10:51:52.619Z,6.05
2022-08-20T10:54:20.214Z,8.02
2022-08-20T10:56:47.747Z,7.57
2022-08-20T10:59:15.342Z,10.10
2022-08-20T11:01:42.896Z,8.98
2022-08-20T11:04:10.475Z,10.93
2022-08-20T11:06:38.054Z,10.30
2022-08-20T11:09:05.558Z,5.45
2022-08-20T11:11:37.236Z,6.13
2022-08-20T11:14:05.007Z,9.45
2022-08-20T11:16:41.355Z,9.13
2022-08-20T11:19:11.218Z,8.70
2022-08-20T11:21:38.802Z,8.00
2022-08-20T11:24:06.534Z,8.93
2022-08-20T11:26:34.238Z,8.43
2022-08-20T11:29:04.664Z,9.15
2022-08-20T11:31:34.872Z,9.10
2022-08-20T11:34:02.630Z,7.53
2022-08-20T11:36:30.218Z,5.53
2022-08-20T11:38:57.736Z,8.23
2022-08-20T11:41:25.340Z,7.25
2022-08-20T11:44:17.475Z,8.38
2022-08-20T11:46:40.790Z,12.88
2022-08-20T11:49:08.564Z,8.23
2022-08-20T11:51:49.658Z,9.07
2022-08-20T11:54:18.198Z,8.38
2022-08-20T12:04:20.762Z,9.73
2022-08-20T12:06:49.334Z,9.18
2022-08-20T12:09:21.857Z,7.20
2022-08-20T12:11:52.236Z,8.57
2022-08-20T12:14:19.895Z,11.13
2022-08-20T12:16:47.432Z,7.90
2022-08-20T12:19:14.919Z,6.65
2022-08-20T12:21:42.446Z,6.32
2022-08-20T12:24:10.006Z,7.85
2022-08-20T12:26:37.532Z,9.38
2022-08-20T12:29:05.088Z,6.28
2022-08-20T12:31:32.827Z,6.65
2022-08-20T12:34:00.353Z,6.45
2022-08-20T12:36:27.906Z,8.85
2022-08-20T12:38:55.428Z,7.38
2022-08-20T12:41:23.031Z,8.50
2022-08-20T12:43:50.528Z,6.53
2022-08-20T12:46:18.998Z,5.93
2022-08-20T12:48:46.631Z,7.00
2022-08-20T12:51:14.124Z,8.38
2022-08-20T12:53:41.667Z,5.75
2022-08-20T12:56:09.243Z,8.02
2022-08-20T12:58:36.884Z,8.55
2022-08-20T13:01:04.528Z,5.90
2022-08-20T13:03:32.256Z,8.95
2022-08-20T13:06:01.687Z,9.00
2022-08-20T13:08:29.774Z,7.07
2022-08-20T13:11:00.848Z,7.45
2022-08-20T13:13:30.999Z,5.20
2022-08-20T13:15:58.570Z,8.52
2022-08-20T13:18:26.153Z,7.65
2022-08-20T13:20:53.666Z,7.25
2022-08-20T13:23:21.241Z,8.45
2022-08-20T13:25:51.105Z,9.13
2022-08-20T13:28:19.049Z,6.57
2022-08-20T13:30:46.778Z,6.28
2022-08-20T13:33:14.511Z,7.05
2022-08-20T13:35:42.023Z,6.50
2022-08-20T13:38:13.209Z,9.38
2022-08-20T13:40:40.753Z,9.07
2022-08-20T13:43:12.023Z,5.50
2022-08-20T13:45:40.559Z,7.97
2022-08-20T13:48:09.960Z,9.90
2022-08-20T13:50:44.035Z,8.85
2022-08-20T13:53:15.950Z,5.70
2022-08-20T13:55:43.901Z,8.35
2022-08-20T13:58:11.693Z,7.95
2022-08-20T14:00:39.460Z,7.68
2022-08-20T14:03:07.537Z,6.78
2022-08-20T14:08:09.634Z,7.85
2022-08-20T14:10:38.452Z,5.93
2022-08-20T14:13:15.433Z,9.27
2022-08-20T14:15:46.980Z,6.55
2022-08-20T14:18:15.861Z,8.77
2022-08-20T14:20:45.451Z,6.80
2022-08-20T14:23:14.413Z,7.78
2022-08-20T14:25:46.850Z,8.85
2022-08-20T14:28:22.839Z,7.45
2022-08-20T14:30:55.446Z,6.05
2022-08-20T14:33:23.837Z,7.07
2022-08-20T14:35:52.206Z,11.25
2022-08-20T14:38:19.840Z,8.27
2022-08-20T14:40:47.482Z,8.52
2022-08-20T14:43:15.014Z,7.28
2022-08-20T14:45:42.658Z,7.35
2022-08-20T14:48:10.306Z,7.10
2022-08-20T14:50:38.078Z,5.35
2022-08-20T14:55:37.417Z,5.68
2022-08-20T14:58:14.725Z,7.97
2022-08-20T15:00:43.354Z,4.90
2022-08-20T15:03:11.070Z,8.32
2022-08-20T15:08:09.016Z,7.18
2022-08-20T15:10:39.164Z,6.43
2022-08-20T15:13:09.752Z,7.35
2022-08-20T15:15:40.664Z,5.93
2022-08-20T15:18:14.039Z,6.03
2022-08-20T15:20:47.102Z,6.95
2022-08-20T15:23:17.261Z,5.50
2022-08-20T15:25:47.771Z,5.05
2022-08-20T15:28:15.463Z,8.25
2022-08-20T15:30:44.402Z,5.05
2022-08-20T15:33:13.165Z,10.05
2022-08-20T15:35:40.944Z,9.55
2022-08-20T15:38:09.583Z,7.07
2022-08-20T15:40:37.324Z,7.05
2022-08-20T15:43:05.786Z,8.35
2022-08-20T15:45:34.939Z,6.93
2022-08-20T15:48:11.756Z,6.65
2022-08-20T15:50:48.183Z,6.93
2022-08-20T15:53:47.040Z,8.57
2022-08-20T15:56:23.924Z,6.40
2022-08-20T15:59:18.884Z,9.20
2022-08-20T16:02:16.782Z,8.63
2022-08-20T16:05:01.020Z,7.28
2022-08-20T16:07:54.719Z,7.70
2022-08-20T16:10:48.676Z,7.43
2022-08-20T16:13:41.287Z,12.20
2022-08-20T16:16:16.583Z,9.73
2022-08-20T16:18:47.792Z,12.18
2022-08-20T16:21:19.150Z,9.07
2022-08-20T16:23:46.915Z,10.52
2022-08-20T16:26:28.077Z,10.30
2022-08-20T16:29:18.487Z,14.95
2022-08-20T16:32:01.447Z,9.52
2022-08-20T16:34:40.642Z,11.52
2022-08-20T16:37:22.358Z,12.20
2022-08-20T16:39:59.974Z,8.40
2022-08-20T16:42:35.460Z,13.13
2022-08-20T16:45:05.257Z,14.80
2022-08-20T16:47:35.823Z,12.55
2022-08-20T16:50:22.810Z,11.82
2022-08-20T16:52:53.834Z,11.40
2022-08-20T16:55:23.479Z,15.05
2022-08-20T16:57:53.450Z,12.45
2022-08-20T17:00:28.672Z,12.52
2022-08-20T17:03:04.616Z,14.43
2022-08-20T17:05:51.113Z,12.82
2022-08-20T17:08:58.335Z,12.18
2022-08-20T17:11:40.616Z,9.63
2022-08-20T17:14:27.866Z,12.23
2022-08-20T17:19:35.057Z,14.43
2022-08-20T17:22:17.968Z,14.82
2022-08-20T17:24:50.871Z,17.15
2022-08-20T17:27:39.699Z,15.60
2022-08-20T17:30:24.999Z,12.57
2022-08-20T17:33:06.516Z,13.95
2022-08-20T17:35:42.294Z,11.60
2022-08-20T17:38:33.934Z,11.02
2022-08-20T17:41:08.497Z,13.85
2022-08-20T17:43:43.265Z,11.48
2022-08-20T17:46:18.962Z,12.80
2022-08-20T17:48:48.752Z,12.20
2022-08-20T17:51:51.669Z,15.32
2022-08-20T17:54:34.808Z,9.77
2022-08-20T17:57:15.161Z,18.20
2022-08-20T18:00:01.410Z,13.75
2022-08-20T18:05:14.530Z,10.23
2022-08-20T18:07:55.897Z,9.20
2022-08-20T18:10:27.106Z,11.57
2022-08-20T18:13:01.371Z,15.00
2022-08-20T18:15:58.309Z,15.80
2022-08-20T18:18:56.521Z,10.60
2022-08-20T18:22:11.928Z,12.52
2022-08-20T18:25:03.757Z,13.13
2022-08-20T18:27:51.113Z,12.63
2022-08-20T18:30:23.371Z,10.27
2022-08-20T18:33:06.190Z,12.68
2022-08-20T18:35:45.768Z,57.97
2022-08-20T18:38:32.939Z,20.50
2022-08-20T18:41:13.388Z,15.48
2022-08-20T18:43:44.479Z,14.38
2022-08-20T18:46:23.336Z,12.95
2022-08-20T18:48:53.839Z,15.25
2022-08-20T18:51:31.973Z,10.43
2022-08-20T18:54:09.587Z,12.90
2022-08-20T18:56:53.207Z,19.27
2022-08-20T18:59:25.951Z,14.13
2022-08-20T19:01:56.060Z,14.07
2022-08-20T19:04:36.152Z,22.10
2022-08-20T19:07:15.145Z,12.45
2022-08-20T19:09:55.202Z,16.20
2022-08-20T19:12:45.073Z,13.07
2022-08-20T19:15:22.055Z,14.13
2022-08-20T19:18:05.838Z,14.23
2022-08-20T19:20:41.884Z,17.45
2022-08-20T19:23:16.214Z,13.00
2022-08-20T19:25:59.011Z,18.40
2022-08-20T19:28:52.408Z,10.40
2022-08-20T19:31:26.764Z,14.48
2022-08-20T19:34:19.773Z,16.27
2022-08-20T19:37:35.398Z,14.07
2022-08-20T19:40:40.185Z,14.43
2022-08-20T19:43:18.689Z,12.77
2022-08-20T19:45:52.879Z,17.02
2022-08-20T19:48:43.773Z,12.77
2022-08-20T19:51:30.316Z,15.35
2022-08-20T19:53:58.083Z,19.63
2022-08-20T19:56:27.728Z,17.55
2022-08-20T19:59:02.024Z,13.93
2022-08-20T20:01:30.368Z,17.27
2022-08-20T20:04:17.182Z,17.60
2022-08-20T20:06:47.349Z,14.82
2022-08-20T20:09:27.834Z,17.92
2022-08-20T20:14:36.079Z,14.68
2022-08-20T20:17:15.038Z,19.05
2022-08-20T20:19:56.423Z,20.95
2022-08-20T20:22:35.931Z,15.30
2022-08-20T20:25:29.997Z,20.70
2022-08-20T20:28:44.815Z,17.80
2022-08-20T20:31:29.189Z,15.75
2022-08-20T20:34:11.967Z,19.98
2022-08-20T20:36:48.510Z,16.80
2022-08-20T20:40:01.732Z,16.40
2022-08-20T20:42:31.974Z,15.40
2022-08-20T20:45:03.657Z,14.32
2022-08-20T20:47:54.955Z,17.60
2022-08-20T20:50:43.376Z,15.77
2022-08-20T20:53:12.257Z,16.92
2022-08-20T20:55:42.753Z,12.98
2022-08-20T20:58:19.067Z,17.55
2022-08-20T21:00:48.681Z,17.13
2022-08-20T21:03:23.255Z,14.45
2022-08-20T21:06:04.128Z,17.50
2022-08-20T21:08:35.413Z,18.85
2022-08-20T21:11:42.125Z,20.33
2022-08-20T21:14:30.604Z,15.93
2022-08-20T21:17:15.771Z,17.60
2022-08-20T21:19:51.835Z,22.13
2022-08-20T21:22:24.731Z,23.50
2022-08-20T21:25:06.421Z,15.57
2022-08-20T21:27:49.829Z,18.90
2022-08-20T21:30:46.931Z,21.60
2022-08-20T21:33:32.047Z,19.02
2022-08-20T21:36:11.952Z,17.67
2022-08-20T21:38:44.299Z,22.15
2022-08-20T21:41:14.719Z,19.75
2022-08-20T21:43:45.867Z,25.88
2022-08-20T21:46:23.818Z,16.63
2022-08-20T21:48:53.390Z,21.80
2022-08-20T21:51:36.789Z,19.42
2022-08-20T21:54:04.561Z,24.63
2022-08-20T21:56:33.862Z,22.25
2022-08-20T21:59:02.214Z,21.30
2022-08-20T22:01:33.118Z,20.58
2022-08-20T22:04:02.149Z,24.55
2022-08-20T22:06:30.209Z,23.40
2022-08-20T22:08:58.275Z,20.50
2022-08-20T22:11:31.087Z,25.02
2022-08-20T22:14:18.975Z,20.10
2022-08-20T22:16:50.669Z,20.42
2022-08-20T22:19:32.591Z,22.02
2022-08-20T22:22:05.563Z,26.13
2022-08-20T22:24:33.316Z,22.77
2022-08-20T22:27:09.564Z,23.35
2022-08-20T22:29:37.489Z,19.50
2022-08-20T22:32:05.292Z,21.02
2022-08-20T22:34:35.356Z,14.68
2022-08-20T22:37:07.872Z,22.67
2022-08-20T22:39:37.995Z,20.73
2022-08-20T22:42:05.986Z,28.52
2022-08-20T22:44:33.649Z,22.85
2022-08-20T22:47:06.927Z,19.42
2022-08-20T22:49:36.888Z,26.08
2022-08-20T22:52:05.109Z,19.45
2022-08-20T22:57:01.406Z,23.80
2022-08-20T23:01:59.495Z,26.08
2022-08-20T23:04:30.128Z,22.23
2022-08-20T23:06:58.912Z,21.55
2022-08-20T23:09:30.204Z,20.33
2022-08-20T23:11:58.074Z,24.75
2022-08-20T23:14:27.059Z,28.63
2022-08-20T23:17:11.329Z,23.30
2022-08-20T23:19:43.395Z,26.58
2022-08-20T23:22:14.291Z,25.23
2022-08-20T23:24:42.319Z,24.98
2022-08-20T23:27:16.959Z,30.13
2022-08-20T23:29:47.656Z,27.17
2022-08-20T23:32:20.329Z,24.35
2022-08-20T23:34:48.151Z,27.40
2022-08-20T23:37:21.496Z,25.95
2022-08-20T23:39:49.914Z,27.10
2022-08-20T23:42:21.086Z,19.20
2022-08-20T23:44:53.548Z,22.50
2022-08-20T23:47:21.670Z,19.40
2022-08-20T23:49:49.485Z,18.20
2022-08-20T23:52:17.786Z,16.85
2022-08-20T23:54:45.625Z,15.23
2022-08-20T23:57:13.326Z,15.55
2022-08-20T23:59:41.677Z,18.17
